Latest Weather Observations for King Island Airport

IDT60801

Issued at 3:05 pm EST Wednesday 3 September 2014 (issued every 30 minutes, with the page automatically refreshed every 10 minutes)

About weather observations | Map of weather stations | Latest weather observations for TAS | Other Formats
Station Details ID: 098017 Name: KING ISLAND AIRPORT Lat: -39.88 Lon: 143.88 Height: 37.0 m
Data from the previous 72 hours. | See also: Recent months at King Island Airport
Date/Time
EST
Temp
°C
App
Temp
°C
Dew
Point
Rel
Hum
%
Delta-T
°C
Wind Press
QNH
hPa
Press
MSL
hPa
Rain
since 9 am
mm
Dir
 
Spd
km/h
Gust
km/h
Spd
kts
Gust
kts
03/03:00pm 12.8 7.5 6.8 67 2.9 SW 24 26 13 14 1021.1 1021.1 0.0
03/02:30pm 12.5 7.6 7.0 69 2.6 WSW 22 30 12 16 1021.3 1021.3 0.0
03/02:00pm 12.7 8.7 6.5 66 2.9 WSW 17 20 9 11 1021.4 1021.4 0.0
03/01:30pm 12.2 7.6 6.3 67 2.8 W 20 30 11 16 1021.6 1021.6 0.0
03/01:00pm 12.6 8.4 5.5 62 3.3 WSW 17 24 9 13 1021.7 1021.7 0.0
03/12:30pm 13.2 9.0 5.9 61 3.5 SW 17 24 9 13 1021.8 1021.8 0.0
03/12:00pm 12.4 8.9 5.6 63 3.2 SW 13 19 7 10 1022.2 1022.2 0.0
03/11:30am 12.1 8.8 6.2 67 2.8 SSW 13 20 7 11 1022.5 1022.5 0.0
03/11:00am 11.8 9.2 6.1 68 2.7 S 9 15 5 8 1022.9 1022.9 0.0
03/10:30am 10.7 6.7 6.5 75 2.0 S 17 28 9 15 1023.2 1023.2 0.0
03/10:00am 12.0 8.3 6.3 68 2.7 SSW 15 24 8 13 1023.3 1023.3 0.0
03/09:30am 11.3 7.5 5.8 69 2.6 SW 15 20 8 11 1023.7 1023.7 0.0
03/09:00am 10.9 6.7 5.7 70 2.4 SSW 17 22 9 12 1023.7 1023.7 0.2
03/08:30am 11.0 7.9 7.1 77 1.9 SSW 13 19 7 10 1023.7 1023.7 0.2
03/08:00am 8.7 7.8 6.0 83 1.2 CALM 0 0 0 0 1023.7 1023.7 0.2
03/07:30am 8.8 7.1 5.7 81 1.4 S 4 7 2 4 1023.6 1023.6 0.2
03/07:00am 7.0 4.3 3.6 79 1.4 S 7 9 4 5 1023.3 1023.3 0.2
03/06:30am 8.5 5.2 4.7 77 1.7 SSW 11 13 6 7 1023.2 1023.2 0.2
03/06:00am 8.7 5.8 4.5 75 1.8 S 9 11 5 6 1023.1 1023.1 0.2
03/05:30am 8.5 5.8 3.9 73 2.0 SSE 7 9 4 5 1022.9 1022.9 0.2
03/05:00am 8.8 5.6 3.2 68 2.4 S 9 13 5 7 1022.8 1022.8 0.2
03/04:30am 8.4 5.3 3.7 72 2.0 SSE 9 11 5 6 1022.9 1022.9 0.2
03/04:00am 8.5 4.9 2.7 67 2.4 S 11 17 6 9 1023.0 1023.0 0.2
03/03:30am 9.1 5.1 2.7 64 2.7 SSW 13 17 7 9 1023.1 1023.1 0.2
03/03:00am 9.0 4.6 2.6 64 2.7 SSW 15 19 8 10 1023.2 1023.2 0.2
03/02:30am 8.4 3.8 1.8 63 2.7 SSW 15 19 8 10 1023.4 1023.4 0.2
03/02:00am 9.6 3.7 2.0 59 3.2 SSW 22 30 12 16 1023.6 1023.6 0.2
03/01:30am 8.8 4.5 3.4 69 2.3 SSW 15 20 8 11 1023.8 1023.8 0.2
03/01:00am 8.4 4.6 4.0 74 1.9 SSW 13 15 7 8 1023.9 1023.9 0.2
03/12:30am 8.3 5.2 3.8 73 1.9 S 9 13 5 7 1023.9 1023.9 0.2
03/12:00am 9.0 4.6 2.6 64 2.7 S 15 20 8 11 1023.8 1023.8 0.2
 
Date/Time
EST
Temp
°C
App
Temp
°C
Dew
Point
Rel
Hum
%
Delta-T
°C
Wind Press
QNH
hPa
Press
MSL
hPa
Rain
since 9 am
mm
Dir
 
Spd
km/h
Gust
km/h
Spd
kts
Gust
kts
02/11:30pm 8.5 5.4 3.6 71 2.1 S 9 13 5 7 1023.8 1023.8 0.2
02/11:00pm 9.5 5.5 2.8 63 2.8 S 13 22 7 12 1024.0 1024.0 0.2
02/10:30pm 9.4 5.9 3.6 67 2.5 S 11 17 6 9 1024.1 1024.1 0.2
02/10:00pm 9.2 6.2 2.1 61 3.0 SSE 7 9 4 5 1024.1 1024.1 0.2
02/09:30pm 9.9 4.0 2.0 58 3.3 SSW 22 30 12 16 1024.0 1024.0 0.2
02/09:00pm 9.7 3.4 1.8 58 3.3 SW 24 33 13 18 1023.9 1023.9 0.2
02/08:30pm 9.7 4.1 1.4 56 3.4 SSW 20 28 11 15 1023.8 1023.8 0.2
02/08:00pm 9.5 3.8 2.6 62 2.9 SSW 22 30 12 16 1023.6 1023.6 0.2
02/07:30pm 9.3 4.1 3.3 66 2.6 SSW 20 28 11 15 1023.4 1023.4 0.2
02/07:00pm 9.2 3.0 4.2 71 2.2 SSW 26 32 14 17 1023.2 1023.2 0.2
02/06:30pm 9.2 6.2 5.8 79 1.6 S 11 17 6 9 1022.8 1022.8 0.2
02/06:00pm 8.9 5.2 6.3 84 1.2 S 15 24 8 13 1022.6 1022.6 0.2
02/05:34pm 10.0 3.2 5.2 72 2.2 SSW 30 48 16 26 1022.5 1022.5 0.0
02/05:30pm 10.5 4.1 5.1 69 2.5 SSW 28 39 15 21 1022.4 1022.4 0.0
02/05:00pm 10.3 3.2 5.7 73 2.1 SSW 32 41 17 22 1022.1 1022.1 0.0
02/04:46pm 11.3 4.7 6.0 70 2.5 SSW 30 48 16 26 1021.8 1021.8 0.0
02/04:30pm 10.9 4.6 5.9 71 2.3 SSW 28 39 15 21 1021.6 1021.6 0.0
02/04:00pm 11.4 4.6 5.3 66 2.8 SSW 30 37 16 20 1021.2 1021.2 0.0
02/03:30pm 11.7 4.5 5.1 64 3.0 SSW 32 41 17 22 1021.1 1021.1 0.0
02/03:00pm 12.2 4.7 3.2 54 4.0 SSW 32 41 17 22 1020.9 1020.9 0.0
02/02:30pm 12.3 4.9 4.0 57 3.7 SSW 32 41 17 22 1020.8 1020.8 0.0
02/02:00pm 12.2 4.8 3.9 57 3.7 SSW 32 41 17 22 1020.7 1020.7 0.0
02/01:30pm 12.5 4.5 3.7 55 3.9 SSW 35 43 19 23 1020.6 1020.6 0.0
02/01:00pm 12.6 5.3 4.6 58 3.6 SSW 32 46 17 25 1020.6 1020.6 0.0
02/12:30pm 12.3 4.8 3.5 55 3.9 SSW 32 43 17 23 1020.6 1020.6 0.0
02/12:00pm 12.5 5.3 5.0 60 3.4 SSW 32 48 17 26 1020.7 1020.7 0.0
02/11:52am 12.4 5.9 4.9 60 3.4 SSW 28 48 15 26 1020.6 1020.6 0.0
02/11:30am 11.7 4.7 6.2 69 2.6 SSW 32 44 17 24 1020.6 1020.6 0.0
02/11:00am 12.2 4.8 4.2 58 3.6 SSW 32 39 17 21 1020.6 1020.6 0.0
02/10:30am 12.0 5.6 5.4 64 3.1 S 28 41 15 22 1020.5 1020.5 0.0
02/10:00am 12.3 6.3 5.2 62 3.3 S 26 39 14 21 1020.2 1020.2 0.0
02/09:30am 12.6 8.1 6.2 65 3.0 S 19 26 10 14 1019.9 1019.9 0.0
02/09:00am 10.6 6.5 6.2 74 2.0 S 17 26 9 14 1019.8 1019.8 2.4
02/08:30am 10.4 7.6 6.9 79 1.7 S 11 17 6 9 1019.5 1019.5 2.4
02/08:00am 9.7 6.7 7.8 88 0.9 S 13 22 7 12 1019.0 1019.0 2.4
02/07:30am 8.9 5.4 7.0 88 0.9 SSE 15 22 8 12 1018.5 1018.5 2.4
02/07:00am 8.9 4.5 6.7 86 1.0 SSE 19 28 10 15 1018.0 1018.0 2.4
02/06:30am 8.8 5.0 5.9 82 1.3 SSE 15 22 8 12 1017.5 1017.5 2.4
02/06:00am 8.5 4.7 5.8 83 1.2 SSE 15 20 8 11 1017.0 1017.0 2.4
02/05:30am 8.2 5.2 6.0 86 1.0 SSE 11 17 6 9 1016.4 1016.4 2.4
02/05:00am 7.7 4.5 5.3 85 1.1 S 11 17 6 9 1015.8 1015.8 2.4
02/04:30am 8.7 3.9 5.8 82 1.3 S 20 30 11 16 1015.4 1015.4 2.4
02/04:00am 9.9 5.4 6.1 77 1.8 S 19 28 10 15 1014.8 1014.8 2.4
02/03:30am 9.4 6.0 6.1 80 1.5 S 13 26 7 14 1014.8 1014.8 2.4
02/03:00am 10.0 3.9 6.7 80 1.5 SW 28 37 15 20 1014.5 1014.5 2.4
02/02:30am 9.3 5.0 5.1 75 1.9 S 17 28 9 15 1014.3 1014.3 2.4
02/02:00am 10.1 5.6 5.9 75 1.9 S 19 30 10 16 1014.1 1014.1 2.4
02/01:30am 9.6 5.6 6.5 81 1.4 S 17 28 9 15 1014.0 1014.0 2.4
02/01:00am 8.2 5.0 5.3 82 1.3 S 11 15 6 8 1013.8 1013.8 2.4
02/12:30am 9.0 5.6 5.9 81 1.4 S 13 17 7 9 1013.6 1013.6 2.4
02/12:00am 10.1 4.4 6.8 80 1.6 SSW 26 33 14 18 1013.5 1013.5 2.4
 
Date/Time
EST
Temp
°C
App
Temp
°C
Dew
Point
Rel
Hum
%
Delta-T
°C
Wind Press
QNH
hPa
Press
MSL
hPa
Rain
since 9 am
mm
Dir
 
Spd
km/h
Gust
km/h
Spd
kts
Gust
kts
01/11:44pm 9.8 3.5 7.6 86 1.1 SSW 30 39 16 21 1013.4 1013.4 2.4
01/11:30pm 8.4 5.9 6.5 88 0.9 S 9 13 5 7 1013.3 1013.3 2.4
01/11:00pm 9.5 6.8 7.3 86 1.0 S 11 19 6 10 1013.1 1013.1 2.4
01/10:30pm 9.2 6.5 7.2 87 0.9 S 11 15 6 8 1012.7 1012.7 2.4
01/10:00pm 9.5 6.8 7.3 86 1.0 S 11 15 6 8 1012.5 1012.5 2.4
01/09:30pm 9.7 5.2 6.2 79 1.6 S 19 30 10 16 1012.2 1012.2 2.4
01/09:00pm 10.6 6.0 6.6 76 1.9 SSW 20 28 11 15 1011.9 1011.9 2.4
01/08:30pm 10.8 6.7 6.4 74 2.1 SSW 17 22 9 12 1011.6 1011.6 2.4
01/08:00pm 10.7 6.3 6.6 76 1.9 SW 19 24 10 13 1011.3 1011.3 2.4
01/07:30pm 10.4 6.3 6.2 75 2.0 SW 17 26 9 14 1011.0 1011.0 2.4
01/07:00pm 10.9 6.9 6.5 74 2.1 SSW 17 24 9 13 1010.6 1010.6 2.4
01/06:30pm 10.7 7.0 6.5 75 2.0 SW 15 17 8 9 1010.3 1010.3 2.4
01/06:00pm 11.1 6.7 6.5 73 2.2 SW 19 28 10 15 1009.8 1009.9 2.4
01/05:30pm 11.7 6.3 6.4 70 2.5 SSW 24 33 13 18 1009.2 1009.3 2.4
01/05:00pm 12.0 7.0 7.9 76 2.0 SSW 24 30 13 16 1008.8 1008.9 2.4
01/04:30pm 12.5 7.9 8.2 75 2.1 SW 22 32 12 17 1008.6 1008.7 2.4
01/04:00pm 12.8 6.7 8.3 74 2.2 SSW 30 39 16 21 1008.4 1008.5 2.4
01/03:30pm 12.8 6.7 8.3 74 2.2 SW 30 41 16 22 1008.0 1008.1 2.4
01/03:00pm 12.3 6.7 8.6 78 1.8 SSW 28 39 15 21 1007.7 1007.8 2.4
01/02:30pm 13.0 6.2 7.9 71 2.5 SW 33 44 18 24 1007.3 1007.4 2.4
01/02:00pm 12.9 6.7 9.2 78 1.9 SW 32 41 17 22 1007.0 1007.1 2.4
01/01:30pm 12.4 6.9 10.5 88 1.0 SW 30 39 16 21 1007.2 1007.3 2.4
01/01:00pm 11.7 6.5 10.4 92 0.7 SW 28 50 15 27 1007.2 1007.3 2.4
01/12:30pm 10.9 4.8 9.8 93 0.6 SW 32 41 17 22 1007.1 1007.2 2.4
01/12:22pm 11.0 4.5 10.2 95 0.4 SW 35 44 19 24 1007.1 1007.2 2.4
01/12:17pm 11.3 4.8 10.5 95 0.4 SW 35 48 19 26 1007.1 1007.2 2.4
01/12:00pm 10.8 4.2 9.9 94 0.5 SW 35 52 19 28 1006.9 1007.0 2.2
01/11:59am 10.8 4.6 9.9 94 0.5 SW 33 52 18 28 1006.9 1007.0 2.2
01/11:56am 10.8 4.6 9.9 94 0.5 SW 33 52 18 28 1006.9 1007.0 2.2
01/11:53am 11.1 5.1 10.2 94 0.5 SW 32 52 17 28 1006.9 1007.0 2.0
01/11:30am 11.0 5.0 10.1 94 0.5 SSW 32 44 17 24 1006.8 1006.9 2.0
01/11:23am 11.5 5.6 10.6 94 0.5 SW 32 41 17 22 1006.6 1006.7 2.0
01/11:00am 11.3 4.5 10.5 95 0.4 SSW 37 50 20 27 1006.4 1006.5 1.8
01/10:44am 11.7 5.9 10.9 95 0.4 SSW 32 39 17 21 1006.0 1006.1 1.8
01/10:41am 11.7 5.9 10.9 95 0.4 SSW 32 39 17 21 1006.0 1006.1 1.8
01/10:33am 11.8 6.0 10.9 94 0.5 SSW 32 39 17 21 1006.0 1006.1 1.8
01/10:30am 11.9 6.0 11.0 94 0.5 SSW 33 39 18 21 1005.9 1006.0 1.8
01/10:27am 11.9 5.6 11.0 94 0.5 SW 35 41 19 22 1005.9 1006.0 1.6
01/10:21am 12.4 10.4 11.5 94 0.5 WSW 13 20 7 11 1005.9 1006.0 1.4
01/10:00am 11.9 8.6 10.8 93 0.6 SW 19 28 10 15 1005.7 1005.8 1.0
01/09:59am 12.0 8.4 10.7 92 0.7 SW 20 30 11 16 1005.7 1005.8 1.0
01/09:30am 13.0 8.2 11.7 92 0.7 WNW 28 35 15 19 1005.6 1005.7 0.4
01/09:00am 12.8 8.0 11.5 92 0.7 NW 28 32 15 17 1005.6 1005.7 0.8
01/08:30am 12.3 8.1 11.0 92 0.7 WNW 24 33 13 18 1005.5 1005.6 0.6
01/08:00am 12.7 7.5 11.6 93 0.6 NW 30 39 16 21 1005.4 1005.5 0.4
01/07:59am 12.7 7.5 11.6 93 0.6 NW 30 39 16 21 1005.3 1005.4 0.4
01/07:30am 12.9 7.4 11.8 93 0.6 NNW 32 37 17 20 1005.1 1005.2 0.2
01/07:16am 12.8 7.6 11.7 93 0.6 NNW 30 39 16 21 1005.0 1005.1 0.2
01/07:00am 12.7 7.8 11.4 92 0.7 NNW 28 37 15 20 1004.9 1005.0 0.2
01/06:30am 12.8 7.1 11.2 90 0.8 NNW 32 46 17 25 1004.9 1005.0 0.0
01/06:00am 13.1 6.7 10.8 86 1.2 NNW 35 43 19 23 1004.9 1005.0 0.0
01/05:30am 13.6 7.1 10.4 81 1.7 NNW 35 46 19 25 1005.2 1005.3 0.0
01/05:07am 13.9 7.8 10.3 79 1.9 NNW 33 52 18 28 1005.3 1005.4 0.0
01/05:00am 13.7 8.2 10.5 81 1.7 NNW 30 41 16 22 1005.4 1005.5 0.0
01/04:47am 13.2 8.3 11.3 88 1.0 N 28 39 15 21 1005.3 1005.4 0.0
01/04:30am 12.7 11.5 11.6 93 0.6 N 9 11 5 6 1005.3 1005.4 0.0
01/04:00am 12.8 11.6 11.7 93 0.6 N 9 9 5 5 1005.7 1005.8 0.0
01/03:30am 12.7 12.4 11.4 92 0.7 NNW 4 9 2 5 1006.1 1006.2 0.0
01/03:00am 12.6 13.0 11.2 91 0.7 CALM 0 0 0 0 1005.8 1005.9 0.0
01/02:30am 12.9 13.0 11.5 91 0.7 NNW 2 7 1 4 1006.4 1006.5 0.0
01/02:00am 12.3 10.8 10.7 90 0.8 E 9 13 5 7 1006.1 1006.2 0.0
01/01:30am 13.1 12.7 11.2 88 1.0 N 4 7 2 4 1007.0 1007.1 0.0
01/01:00am 13.6 12.7 11.3 86 1.2 N 7 9 4 5 1006.8 1006.9 0.0
01/12:30am 14.2 12.3 11.7 85 1.3 N 13 17 7 9 1007.3 1007.4 0.0
01/12:00am 14.4 10.4 10.6 78 2.0 NNW 22 30 12 16 1007.8 1007.9 0.0
 
Date/Time
EST
Temp
°C
App
Temp
°C
Dew
Point
Rel
Hum
%
Delta-T
°C
Wind Press
QNH
hPa
Press
MSL
hPa
Rain
since 9 am
mm
Dir
 
Spd
km/h
Gust
km/h
Spd
kts
Gust
kts
31/11:30pm 15.5 11.3 9.6 68 3.1 N 22 33 12 18 1007.5 1007.6 0.0
31/11:00pm 15.5 11.9 9.8 69 3.0 N 19 26 10 14 1007.9 1008.0 0.0
31/10:30pm 15.3 10.4 10.1 71 2.7 NNE 26 32 14 17 1008.1 1008.2 0.0
31/10:00pm 15.3 10.1 10.1 71 2.7 NNE 28 37 15 20 1008.3 1008.4 0.0
31/09:30pm 15.5 9.5 10.1 70 2.8 NNE 32 39 17 21 1008.6 1008.7 0.0
31/09:00pm 15.8 10.1 9.9 68 3.1 NNE 30 35 16 19 1008.8 1008.9 0.0
31/08:30pm 15.9 11.4 10.0 68 3.1 NNE 24 32 13 17 1009.1 1009.2 0.0
31/08:00pm 16.1 12.8 9.5 65 3.4 NNE 17 26 9 14 1009.7 1009.8 0.0
31/07:30pm 16.8 12.1 9.2 61 3.9 N 24 33 13 18 1009.7 1009.8 0.0
31/07:00pm 16.1 12.4 9.3 64 3.5 NNE 19 26 10 14 1009.7 1009.8 0.0
31/06:30pm 15.9 12.1 9.1 64 3.5 NNE 19 22 10 12 1009.8 1009.9 0.0
31/06:00pm 16.8 11.6 9.0 60 4.0 NNE 26 33 14 18 1009.9 1010.0 0.0
31/05:30pm 16.6 11.9 9.3 62 3.8 N 24 32 13 17 1010.2 1010.2 0.0
31/05:00pm 16.7 11.7 9.6 63 3.7 N 26 33 14 18 1010.2 1010.2 0.0
31/04:30pm 17.6 12.5 9.2 58 4.4 N 26 35 14 19 1010.3 1010.3 0.0
31/04:00pm 17.9 12.9 9.5 58 4.4 N 26 33 14 18 1010.3 1010.3 0.0
31/03:30pm 17.9 12.7 10.3 61 4.1 N 28 37 15 20 1010.6 1010.6 0.0

Other Formats:

Comma delimited format used in spreadsheet applications
http://www.bom.gov.au/fwo/IDT60801/IDT60801.94850.axf

JavaScript Object Notation format (JSON) in row-major order
http://www.bom.gov.au/fwo/IDT60801/IDT60801.94850.json